sensor_id;sensor_type;location;lat;lon;timestamp;pressure;altitude;pressure_sealevel;temperature;humidity
51528;BME280;37612;51.768;21.590;2023-07-20T00:03:16;99199.64;;;15.65;66.18
51528;BME280;37612;51.768;21.590;2023-07-20T00:07:18;99201.07;;;15.63;66.61
51528;BME280;37612;51.768;21.590;2023-07-20T00:11:20;99197.80;;;15.65;66.91
51528;BME280;37612;51.768;21.590;2023-07-20T00:15:22;99189.43;;;15.64;67.26
51528;BME280;37612;51.768;21.590;2023-07-20T00:19:27;99185.28;;;15.60;67.22
51528;BME280;37612;51.768;21.590;2023-07-20T00:23:29;99180.97;;;15.56;67.70
51528;BME280;37612;51.768;21.590;2023-07-20T00:27:31;99175.20;;;15.56;67.61
51528;BME280;37612;51.768;21.590;2023-07-20T00:31:33;99169.46;;;15.55;67.81
51528;BME280;37612;51.768;21.590;2023-07-20T00:35:37;99167.97;;;15.50;67.91
51528;BME280;37612;51.768;21.590;2023-07-20T00:39:39;99162.27;;;15.42;68.22
51528;BME280;37612;51.768;21.590;2023-07-20T00:43:41;99162.89;;;15.36;68.73
51528;BME280;37612;51.768;21.590;2023-07-20T00:47:43;99153.71;;;15.33;68.45
51528;BME280;37612;51.768;21.590;2023-07-20T00:51:45;99148.82;;;15.27;68.77
51528;BME280;37612;51.768;21.590;2023-07-20T00:55:47;99144.17;;;15.21;69.10
51528;BME280;37612;51.768;21.590;2023-07-20T00:59:50;99143.40;;;15.14;69.28
51528;BME280;37612;51.768;21.590;2023-07-20T01:03:55;99137.75;;;15.09;69.39
51528;BME280;37612;51.768;21.590;2023-07-20T01:08:09;99135.45;;;15.06;69.46
51528;BME280;37612;51.768;21.590;2023-07-20T01:12:22;99136.98;;;15.05;70.30
51528;BME280;37612;51.768;21.590;2023-07-20T01:16:24;99135.91;;;15.02;70.49
51528;BME280;37612;51.768;21.590;2023-07-20T01:20:28;99139.46;;;14.96;70.22
51528;BME280;37612;51.768;21.590;2023-07-20T01:29:09;99154.63;;;14.89;70.70
51528;BME280;37612;51.768;21.590;2023-07-20T01:33:15;99147.41;;;14.79;71.41
51528;BME280;37612;51.768;21.590;2023-07-20T01:37:20;99143.89;;;14.74;71.47
51528;BME280;37612;51.768;21.590;2023-07-20T01:41:23;99145.61;;;14.71;71.91
51528;BME280;37612;51.768;21.590;2023-07-20T01:45:25;99138.25;;;14.73;71.89
51528;BME280;37612;51.768;21.590;2023-07-20T01:49:28;99137.67;;;14.76;72.56
51528;BME280;37612;51.768;21.590;2023-07-20T01:53:30;99142.80;;;14.75;72.45
51528;BME280;37612;51.768;21.590;2023-07-20T01:57:32;99141.81;;;14.76;72.97
51528;BME280;37612;51.768;21.590;2023-07-20T02:01:34;99148.94;;;14.83;72.78
51528;BME280;37612;51.768;21.590;2023-07-20T02:05:35;99157.13;;;14.87;73.06
51528;BME280;37612;51.768;21.590;2023-07-20T02:09:37;99165.32;;;14.88;73.11
51528;BME280;37612;51.768;21.590;2023-07-20T02:13:39;99172.73;;;14.89;73.54
51528;BME280;37612;51.768;21.590;2023-07-20T02:17:41;99180.84;;;14.89;73.28
51528;BME280;37612;51.768;21.590;2023-07-20T02:21:43;99193.16;;;14.86;73.74
51528;BME280;37612;51.768;21.590;2023-07-20T02:25:45;99198.69;;;14.81;73.93
51528;BME280;37612;51.768;21.590;2023-07-20T02:29:47;99193.48;;;14.80;74.22
51528;BME280;37612;51.768;21.590;2023-07-20T02:33:48;99182.46;;;14.86;74.11
51528;BME280;37612;51.768;21.590;2023-07-20T02:37:50;99171.64;;;14.92;74.07
51528;BME280;37612;51.768;21.590;2023-07-20T02:41:52;99170.77;;;14.99;74.01
51528;BME280;37612;51.768;21.590;2023-07-20T02:45:54;99176.92;;;14.99;74.26
51528;BME280;37612;51.768;21.590;2023-07-20T02:49:56;99182.98;;;15.03;74.54
51528;BME280;37612;51.768;21.590;2023-07-20T02:53:59;99188.06;;;15.05;74.36
51528;BME280;37612;51.768;21.590;2023-07-20T02:58:01;99189.33;;;15.06;74.64
51528;BME280;37612;51.768;21.590;2023-07-20T03:02:03;99193.38;;;15.08;74.61
51528;BME280;37612;51.768;21.590;2023-07-20T03:06:05;99189.67;;;15.08;74.60
51528;BME280;37612;51.768;21.590;2023-07-20T03:10:07;99189.08;;;15.05;74.60
51528;BME280;37612;51.768;21.590;2023-07-20T03:14:10;99198.79;;;15.03;74.97
51528;BME280;37612;51.768;21.590;2023-07-20T03:18:13;99197.08;;;15.05;75.08
51528;BME280;37612;51.768;21.590;2023-07-20T03:22:14;99198.63;;;15.11;75.02
51528;BME280;37612;51.768;21.590;2023-07-20T03:26:16;99197.16;;;15.14;75.01
51528;BME280;37612;51.768;21.590;2023-07-20T03:30:18;99197.73;;;15.15;75.14
51528;BME280;37612;51.768;21.590;2023-07-20T03:34:20;99184.87;;;15.14;75.16
51528;BME280;37612;51.768;21.590;2023-07-20T03:38:22;99188.87;;;15.15;75.19
51528;BME280;37612;51.768;21.590;2023-07-20T03:42:24;99192.79;;;15.15;75.26
51528;BME280;37612;51.768;21.590;2023-07-20T03:46:26;99190.77;;;15.20;75.34
51528;BME280;37612;51.768;21.590;2023-07-20T03:50:28;99200.46;;;15.22;75.37
51528;BME280;37612;51.768;21.590;2023-07-20T03:54:31;99214.35;;;15.23;75.38
51528;BME280;37612;51.768;21.590;2023-07-20T03:58:33;99220.59;;;15.24;75.08
51528;BME280;37612;51.768;21.590;2023-07-20T04:02:35;99219.23;;;15.27;75.60
51528;BME280;37612;51.768;21.590;2023-07-20T04:06:37;99221.56;;;15.36;75.90
51528;BME280;37612;51.768;21.590;2023-07-20T04:10:42;99237.61;;;15.41;75.85
51528;BME280;37612;51.768;21.590;2023-07-20T04:14:44;99254.59;;;15.38;76.55
51528;BME280;37612;51.768;21.590;2023-07-20T04:18:46;99252.11;;;15.31;76.46
51528;BME280;37612;51.768;21.590;2023-07-20T04:22:48;99267.55;;;15.26;76.73
51528;BME280;37612;51.768;21.590;2023-07-20T04:26:51;99273.63;;;15.25;77.01
51528;BME280;37612;51.768;21.590;2023-07-20T04:30:53;99278.14;;;15.28;77.11
51528;BME280;37612;51.768;21.590;2023-07-20T04:34:55;99300.95;;;15.28;77.43
51528;BME280;37612;51.768;21.590;2023-07-20T04:38:57;99318.08;;;15.21;77.75
51528;BME280;37612;51.768;21.590;2023-07-20T04:42:59;99324.77;;;15.17;78.10
51528;BME280;37612;51.768;21.590;2023-07-20T04:47:01;99322.85;;;15.10;78.33
51528;BME280;37612;51.768;21.590;2023-07-20T04:51:03;99337.92;;;15.03;78.72
51528;BME280;37612;51.768;21.590;2023-07-20T04:55:05;99348.29;;;14.90;79.76
51528;BME280;37612;51.768;21.590;2023-07-20T04:59:07;99359.74;;;14.83;80.77
51528;BME280;37612;51.768;21.590;2023-07-20T05:03:08;99368.92;;;14.74;81.67
51528;BME280;37612;51.768;21.590;2023-07-20T05:07:10;99372.27;;;14.63;82.71
51528;BME280;37612;51.768;21.590;2023-07-20T05:11:12;99378.89;;;14.59;82.46
51528;BME280;37612;51.768;21.590;2023-07-20T05:15:14;99400.04;;;14.57;83.68
51528;BME280;37612;51.768;21.590;2023-07-20T05:19:16;99403.69;;;14.51;85.03
51528;BME280;37612;51.768;21.590;2023-07-20T05:23:19;99404.36;;;14.40;85.45
51528;BME280;37612;51.768;21.590;2023-07-20T05:27:24;99409.53;;;14.36;85.59
51528;BME280;37612;51.768;21.590;2023-07-20T05:31:25;99409.26;;;14.33;85.78
51528;BME280;37612;51.768;21.590;2023-07-20T05:35:27;99400.11;;;14.30;86.50
51528;BME280;37612;51.768;21.590;2023-07-20T05:39:29;99395.85;;;14.30;86.21
51528;BME280;37612;51.768;21.590;2023-07-20T05:43:33;99388.84;;;14.29;87.06
51528;BME280;37612;51.768;21.590;2023-07-20T05:47:35;99382.48;;;14.24;87.08
51528;BME280;37612;51.768;21.590;2023-07-20T05:51:37;99376.17;;;14.21;87.17
51528;BME280;37612;51.768;21.590;2023-07-20T05:55:39;99380.97;;;14.16;87.64
51528;BME280;37612;51.768;21.590;2023-07-20T05:59:41;99382.49;;;14.11;88.07
51528;BME280;37612;51.768;21.590;2023-07-20T06:03:45;99378.52;;;14.12;88.36
51528;BME280;37612;51.768;21.590;2023-07-20T06:07:48;99379.09;;;14.11;88.91
51528;BME280;37612;51.768;21.590;2023-07-20T06:11:50;99358.20;;;14.16;89.62
51528;BME280;37612;51.768;21.590;2023-07-20T06:15:51;99342.13;;;14.14;90.71
51528;BME280;37612;51.768;21.590;2023-07-20T06:19:54;99336.92;;;14.14;90.49
51528;BME280;37612;51.768;21.590;2023-07-20T06:23:55;99318.90;;;14.20;90.54
51528;BME280;37612;51.768;21.590;2023-07-20T06:27:58;99303.77;;;14.30;91.01
51528;BME280;37612;51.768;21.590;2023-07-20T06:32:00;99306.14;;;14.40;91.06
51528;BME280;37612;51.768;21.590;2023-07-20T06:36:02;99317.86;;;14.55;91.16
51528;BME280;37612;51.768;21.590;2023-07-20T06:40:04;99317.73;;;14.73;91.21
51528;BME280;37612;51.768;21.590;2023-07-20T06:44:06;99312.65;;;14.90;91.21
51528;BME280;37612;51.768;21.590;2023-07-20T06:48:09;99312.45;;;15.08;91.19
51528;BME280;37612;51.768;21.590;2023-07-20T06:52:11;99306.58;;;15.27;90.82
51528;BME280;37612;51.768;21.590;2023-07-20T06:56:15;99299.20;;;15.32;90.57
51528;BME280;37612;51.768;21.590;2023-07-20T07:00:18;99293.53;;;15.38;91.39
51528;BME280;37612;51.768;21.590;2023-07-20T07:04:19;99297.48;;;15.40;90.89
51528;BME280;37612;51.768;21.590;2023-07-20T07:08:34;99300.07;;;15.39;90.93
51528;BME280;37612;51.768;21.590;2023-07-20T07:12:36;99312.39;;;15.37;91.29
51528;BME280;37612;51.768;21.590;2023-07-20T07:16:38;99325.06;;;15.41;91.78
51528;BME280;37612;51.768;21.590;2023-07-20T07:20:40;99325.98;;;15.47;92.02
51528;BME280;37612;51.768;21.590;2023-07-20T07:24:41;99328.02;;;15.60;92.18
51528;BME280;37612;51.768;21.590;2023-07-20T07:28:43;99328.09;;;15.69;91.70
51528;BME280;37612;51.768;21.590;2023-07-20T07:32:45;99331.80;;;15.77;91.38
51528;BME280;37612;51.768;21.590;2023-07-20T07:36:47;99337.56;;;15.95;91.85
51528;BME280;37612;51.768;21.590;2023-07-20T07:40:49;99339.86;;;16.06;91.39
51528;BME280;37612;51.768;21.590;2023-07-20T07:44:51;99350.61;;;16.07;91.01
51528;BME280;37612;51.768;21.590;2023-07-20T07:48:53;99352.73;;;16.15;91.38
51528;BME280;37612;51.768;21.590;2023-07-20T07:52:55;99355.13;;;16.17;90.95
51528;BME280;37612;51.768;21.590;2023-07-20T07:56:57;99360.65;;;16.18;91.67
51528;BME280;37612;51.768;21.590;2023-07-20T08:00:59;99364.07;;;16.24;91.85
51528;BME280;37612;51.768;21.590;2023-07-20T08:05:01;99372.61;;;16.30;92.26
51528;BME280;37612;51.768;21.590;2023-07-20T08:09:03;99376.52;;;16.43;92.31
51528;BME280;37612;51.768;21.590;2023-07-20T08:13:04;99374.91;;;16.59;92.25
51528;BME280;37612;51.768;21.590;2023-07-20T08:17:06;99374.41;;;16.76;92.51
51528;BME280;37612;51.768;21.590;2023-07-20T08:21:08;99381.58;;;16.97;92.74
51528;BME280;37612;51.768;21.590;2023-07-20T08:25:10;99382.64;;;17.10;92.41
51528;BME280;37612;51.768;21.590;2023-07-20T08:29:17;99383.27;;;17.20;92.38
51528;BME280;37612;51.768;21.590;2023-07-20T08:33:20;99389.84;;;17.31;91.91
51528;BME280;37612;51.768;21.590;2023-07-20T08:37:22;99391.69;;;17.49;91.82
51528;BME280;37612;51.768;21.590;2023-07-20T08:41:24;99392.24;;;17.70;91.82
51528;BME280;37612;51.768;21.590;2023-07-20T08:45:27;99395.86;;;17.74;91.09
51528;BME280;37612;51.768;21.590;2023-07-20T08:49:31;99396.70;;;17.71;91.00
51528;BME280;37612;51.768;21.590;2023-07-20T08:53:34;99409.66;;;17.64;90.49
51528;BME280;37612;51.768;21.590;2023-07-20T08:57:36;99417.27;;;17.54;90.17
51528;BME280;37612;51.768;21.590;2023-07-20T09:01:39;99427.77;;;17.39;90.62
51528;BME280;37612;51.768;21.590;2023-07-20T09:05:40;99436.08;;;17.20;90.80
51528;BME280;37612;51.768;21.590;2023-07-20T09:09:42;99436.34;;;17.03;91.17
51528;BME280;37612;51.768;21.590;2023-07-20T09:13:44;99433.70;;;16.92;91.23
51528;BME280;37612;51.768;21.590;2023-07-20T09:17:48;99436.58;;;16.84;91.37
51528;BME280;37612;51.768;21.590;2023-07-20T09:21:51;99436.34;;;16.80;91.62
51528;BME280;37612;51.768;21.590;2023-07-20T09:25:53;99436.96;;;16.75;91.93
51528;BME280;37612;51.768;21.590;2023-07-20T09:29:56;99439.22;;;16.79;92.21
51528;BME280;37612;51.768;21.590;2023-07-20T09:33:58;99444.44;;;16.87;92.21
51528;BME280;37612;51.768;21.590;2023-07-20T09:38:00;99450.61;;;16.92;92.42
51528;BME280;37612;51.768;21.590;2023-07-20T09:42:04;99455.39;;;17.00;92.62
51528;BME280;37612;51.768;21.590;2023-07-20T09:46:06;99458.09;;;17.06;92.57
51528;BME280;37612;51.768;21.590;2023-07-20T09:50:09;99456.49;;;17.12;93.02
51528;BME280;37612;51.768;21.590;2023-07-20T09:54:13;99452.77;;;17.26;93.02
51528;BME280;37612;51.768;21.590;2023-07-20T09:58:16;99453.14;;;17.39;92.77
51528;BME280;37612;51.768;21.590;2023-07-20T10:02:25;99452.38;;;17.52;92.50
51528;BME280;37612;51.768;21.590;2023-07-20T10:06:36;99451.90;;;17.58;92.24
51528;BME280;37612;51.768;21.590;2023-07-20T10:10:45;99456.23;;;17.74;92.12
51528;BME280;37612;51.768;21.590;2023-07-20T10:19:34;99459.48;;;17.86;91.84
51528;BME280;37612;51.768;21.590;2023-07-20T10:23:42;99460.14;;;17.90;91.37
51528;BME280;37612;51.768;21.590;2023-07-20T10:27:44;99460.77;;;18.00;91.68
51528;BME280;37612;51.768;21.590;2023-07-20T10:31:59;99468.13;;;18.22;91.85
51528;BME280;37612;51.768;21.590;2023-07-20T10:36:03;99461.67;;;18.21;90.93
51528;BME280;37612;51.768;21.590;2023-07-20T10:40:28;99462.05;;;18.22;90.36
51528;BME280;37612;51.768;21.590;2023-07-20T10:44:30;99461.58;;;18.24;89.82
51528;BME280;37612;51.768;21.590;2023-07-20T10:48:32;99460.45;;;18.34;89.86
51528;BME280;37612;51.768;21.590;2023-07-20T10:52:40;99455.05;;;18.51;89.07
51528;BME280;37612;51.768;21.590;2023-07-20T10:56:43;99453.57;;;18.66;88.70
51528;BME280;37612;51.768;21.590;2023-07-20T11:01:03;99448.29;;;18.72;88.13
51528;BME280;37612;51.768;21.590;2023-07-20T11:05:07;99447.94;;;18.86;87.29
51528;BME280;37612;51.768;21.590;2023-07-20T11:09:14;99447.88;;;19.17;85.93
51528;BME280;37612;51.768;21.590;2023-07-20T11:13:17;99448.85;;;19.35;84.98
51528;BME280;37612;51.768;21.590;2023-07-20T11:17:19;99442.79;;;19.53;83.86
51528;BME280;37612;51.768;21.590;2023-07-20T11:21:23;99437.01;;;19.73;83.55
51528;BME280;37612;51.768;21.590;2023-07-20T11:25:25;99439.27;;;20.04;83.41
51528;BME280;37612;51.768;21.590;2023-07-20T11:29:28;99439.96;;;20.30;82.39
51528;BME280;37612;51.768;21.590;2023-07-20T11:33:31;99437.13;;;20.57;81.14
51528;BME280;37612;51.768;21.590;2023-07-20T11:37:37;99437.70;;;20.45;80.07
51528;BME280;37612;51.768;21.590;2023-07-20T11:41:47;99436.46;;;20.44;78.68
51528;BME280;37612;51.768;21.590;2023-07-20T11:45:50;99429.70;;;20.37;77.62
51528;BME280;37612;51.768;21.590;2023-07-20T11:49:51;99432.61;;;20.32;77.71
51528;BME280;37612;51.768;21.590;2023-07-20T11:53:57;99424.31;;;20.47;77.74
51528;BME280;37612;51.768;21.590;2023-07-20T11:58:06;99425.81;;;20.49;76.17
51528;BME280;37612;51.768;21.590;2023-07-20T12:02:08;99419.51;;;20.32;75.84
51528;BME280;37612;51.768;21.590;2023-07-20T12:06:10;99415.92;;;20.25;75.52
51528;BME280;37612;51.768;21.590;2023-07-20T12:10:12;99415.84;;;20.33;76.03
51528;BME280;37612;51.768;21.590;2023-07-20T12:14:17;99416.98;;;20.49;75.10
51528;BME280;37612;51.768;21.590;2023-07-20T12:18:23;99423.11;;;20.63;74.60
51528;BME280;37612;51.768;21.590;2023-07-20T12:22:28;99416.10;;;20.88;75.09
51528;BME280;37612;51.768;21.590;2023-07-20T12:26:36;99420.65;;;21.26;74.30
51528;BME280;37612;51.768;21.590;2023-07-20T12:30:40;99415.23;;;21.44;73.47
51528;BME280;37612;51.768;21.590;2023-07-20T12:34:42;99412.00;;;21.47;72.40
51528;BME280;37612;51.768;21.590;2023-07-20T12:38:44;99412.71;;;21.27;71.84
51528;BME280;37612;51.768;21.590;2023-07-20T12:42:46;99405.69;;;21.12;71.09
51528;BME280;37612;51.768;21.590;2023-07-20T12:46:48;99397.54;;;21.35;71.51
51528;BME280;37612;51.768;21.590;2023-07-20T12:50:50;99389.16;;;21.30;71.01
51528;BME280;37612;51.768;21.590;2023-07-20T12:54:52;99378.29;;;21.23;71.18
51528;BME280;37612;51.768;21.590;2023-07-20T12:58:56;99369.48;;;21.15;71.50
51528;BME280;37612;51.768;21.590;2023-07-20T13:03:22;99369.73;;;21.15;70.84
51528;BME280;37612;51.768;21.590;2023-07-20T13:07:38;99373.80;;;21.05;70.99
51528;BME280;37612;51.768;21.590;2023-07-20T13:11:41;99374.41;;;21.00;71.31
51528;BME280;37612;51.768;21.590;2023-07-20T13:15:44;99376.28;;;21.03;70.73
51528;BME280;37612;51.768;21.590;2023-07-20T13:19:46;99374.13;;;21.01;70.31
51528;BME280;37612;51.768;21.590;2023-07-20T13:23:48;99374.36;;;20.99;70.20
51528;BME280;37612;51.768;21.590;2023-07-20T13:27:50;99377.29;;;20.98;69.57
51528;BME280;37612;51.768;21.590;2023-07-20T13:31:52;99377.31;;;20.85;68.96
51528;BME280;37612;51.768;21.590;2023-07-20T13:35:54;99375.39;;;20.72;68.85
51528;BME280;37612;51.768;21.590;2023-07-20T13:40:10;99375.48;;;20.58;68.92
51528;BME280;37612;51.768;21.590;2023-07-20T13:44:18;99372.75;;;20.41;69.10
51528;BME280;37612;51.768;21.590;2023-07-20T13:48:22;99376.50;;;20.35;69.18
51528;BME280;37612;51.768;21.590;2023-07-20T13:52:25;99377.09;;;20.20;69.41
51528;BME280;37612;51.768;21.590;2023-07-20T13:56:27;99381.59;;;20.09;69.79
51528;BME280;37612;51.768;21.590;2023-07-20T14:00:30;99379.75;;;19.94;70.10
51528;BME280;37612;51.768;21.590;2023-07-20T14:04:34;99380.09;;;19.96;70.73
51528;BME280;37612;51.768;21.590;2023-07-20T14:08:37;99374.61;;;19.90;70.88
51528;BME280;37612;51.768;21.590;2023-07-20T14:12:39;99369.43;;;19.80;71.24
51528;BME280;37612;51.768;21.590;2023-07-20T14:16:41;99383.77;;;19.73;72.20
51528;BME280;37612;51.768;21.590;2023-07-20T14:20:47;99397.95;;;19.59;72.56
51528;BME280;37612;51.768;21.590;2023-07-20T14:24:48;99393.39;;;19.32;72.80
51528;BME280;37612;51.768;21.590;2023-07-20T14:28:53;99408.24;;;19.16;73.51
51528;BME280;37612;51.768;21.590;2023-07-20T14:32:55;99410.41;;;19.13;74.19
51528;BME280;37612;51.768;21.590;2023-07-20T14:36:59;99416.09;;;19.04;74.65
51528;BME280;37612;51.768;21.590;2023-07-20T14:41:01;99415.98;;;18.98;75.05
51528;BME280;37612;51.768;21.590;2023-07-20T14:45:03;99417.77;;;18.89;75.74
51528;BME280;37612;51.768;21.590;2023-07-20T14:49:10;99422.27;;;18.83;76.49
51528;BME280;37612;51.768;21.590;2023-07-20T14:53:14;99417.69;;;18.69;76.66
51528;BME280;37612;51.768;21.590;2023-07-20T14:57:15;99415.98;;;18.62;77.22
51528;BME280;37612;51.768;21.590;2023-07-20T15:01:24;99412.09;;;18.61;78.06
51528;BME280;37612;51.768;21.590;2023-07-20T15:10:17;99403.52;;;18.73;78.77
51528;BME280;37612;51.768;21.590;2023-07-20T15:14:23;99401.06;;;18.73;79.02
51528;BME280;37612;51.768;21.590;2023-07-20T15:18:34;99391.27;;;18.86;79.31
51528;BME280;37612;51.768;21.590;2023-07-20T15:22:36;99382.09;;;18.95;79.09
51528;BME280;37612;51.768;21.590;2023-07-20T15:26:41;99367.63;;;18.95;79.15
51528;BME280;37612;51.768;21.590;2023-07-20T15:30:43;99355.52;;;18.97;79.27
51528;BME280;37612;51.768;21.590;2023-07-20T15:34:46;99353.79;;;19.06;79.02
51528;BME280;37612;51.768;21.590;2023-07-20T15:38:49;99381.63;;;19.14;78.94
51528;BME280;37612;51.768;21.590;2023-07-20T15:42:53;99387.59;;;19.23;79.09
51528;BME280;37612;51.768;21.590;2023-07-20T15:46:59;99388.15;;;19.29;79.22
51528;BME280;37612;51.768;21.590;2023-07-20T15:51:05;99398.17;;;19.34;79.45
51528;BME280;37612;51.768;21.590;2023-07-20T15:55:09;99399.48;;;20.17;78.56
51528;BME280;37612;51.768;21.590;2023-07-20T15:59:15;99403.09;;;22.01;75.86
51528;BME280;37612;51.768;21.590;2023-07-20T16:03:22;99412.66;;;25.07;71.61
51528;BME280;37612;51.768;21.590;2023-07-20T16:07:51;99413.57;;;27.64;67.52
51528;BME280;37612;51.768;21.590;2023-07-20T16:11:58;99409.91;;;29.47;63.05
51528;BME280;37612;51.768;21.590;2023-07-20T16:16:02;99407.52;;;30.83;61.36
51528;BME280;37612;51.768;21.590;2023-07-20T16:20:05;99408.46;;;31.88;60.19
51528;BME280;37612;51.768;21.590;2023-07-20T16:24:08;99405.07;;;32.12;57.02
51528;BME280;37612;51.768;21.590;2023-07-20T16:28:13;99405.92;;;32.49;55.40
51528;BME280;37612;51.768;21.590;2023-07-20T16:32:19;99403.02;;;33.09;53.72
51528;BME280;37612;51.768;21.590;2023-07-20T16:36:21;99404.30;;;33.29;51.95
51528;BME280;37612;51.768;21.590;2023-07-20T16:40:23;99397.84;;;33.17;50.80
51528;BME280;37612;51.768;21.590;2023-07-20T16:44:26;99402.87;;;32.79;49.87
51528;BME280;37612;51.768;21.590;2023-07-20T16:48:28;99412.20;;;31.27;49.62
51528;BME280;37612;51.768;21.590;2023-07-20T16:52:33;99416.17;;;28.40;51.40
51528;BME280;37612;51.768;21.590;2023-07-20T16:56:38;99422.44;;;26.16;52.60
51528;BME280;37612;51.768;21.590;2023-07-20T17:00:47;99426.05;;;24.55;53.52
51528;BME280;37612;51.768;21.590;2023-07-20T17:04:51;99423.00;;;23.34;55.06
51528;BME280;37612;51.768;21.590;2023-07-20T17:08:54;99421.84;;;22.50;55.93
51528;BME280;37612;51.768;21.590;2023-07-20T17:12:58;99426.48;;;21.79;57.17
51528;BME280;37612;51.768;21.590;2023-07-20T17:17:01;99431.98;;;21.11;58.35
51528;BME280;37612;51.768;21.590;2023-07-20T17:21:04;99433.05;;;20.48;59.34
51528;BME280;37612;51.768;21.590;2023-07-20T17:25:08;99437.79;;;19.83;60.79
51528;BME280;37612;51.768;21.590;2023-07-20T17:29:11;99440.11;;;19.27;62.69
51528;BME280;37612;51.768;21.590;2023-07-20T17:33:13;99438.92;;;18.85;63.58
51528;BME280;37612;51.768;21.590;2023-07-20T17:37:18;99448.67;;;18.49;64.72
51528;BME280;37612;51.768;21.590;2023-07-20T17:41:22;99468.81;;;18.22;66.47
51528;BME280;37612;51.768;21.590;2023-07-20T17:45:26;99545.36;;;17.90;70.00
51528;BME280;37612;51.768;21.590;2023-07-20T17:49:28;99516.39;;;16.90;69.98
51528;BME280;37612;51.768;21.590;2023-07-20T17:53:30;99467.93;;;16.31;70.95
51528;BME280;37612;51.768;21.590;2023-07-20T17:57:32;99476.89;;;16.09;71.35
51528;BME280;37612;51.768;21.590;2023-07-20T18:01:33;99483.89;;;15.93;72.28
51528;BME280;37612;51.768;21.590;2023-07-20T18:05:35;99483.81;;;15.85;73.54
51528;BME280;37612;51.768;21.590;2023-07-20T18:09:37;99480.76;;;15.87;74.40
51528;BME280;37612;51.768;21.590;2023-07-20T18:13:38;99476.15;;;15.86;74.97
51528;BME280;37612;51.768;21.590;2023-07-20T18:17:40;99484.09;;;15.81;75.39
51528;BME280;37612;51.768;21.590;2023-07-20T18:21:42;99485.67;;;15.74;75.89
51528;BME280;37612;51.768;21.590;2023-07-20T18:25:44;99494.02;;;15.60;75.54
51528;BME280;37612;51.768;21.590;2023-07-20T18:29:46;99503.89;;;15.40;76.24
51528;BME280;37612;51.768;21.590;2023-07-20T18:33:47;99513.55;;;15.21;76.21
51528;BME280;37612;51.768;21.590;2023-07-20T18:37:49;99504.99;;;15.03;76.48
51528;BME280;37612;51.768;21.590;2023-07-20T18:41:51;99493.90;;;14.82;75.87
51528;BME280;37612;51.768;21.590;2023-07-20T18:45:53;99494.68;;;14.52;77.42
51528;BME280;37612;51.768;21.590;2023-07-20T18:49:55;99504.30;;;14.36;78.11
51528;BME280;37612;51.768;21.590;2023-07-20T18:53:57;99510.63;;;14.29;78.67
51528;BME280;37612;51.768;21.590;2023-07-20T18:58:02;99519.95;;;14.22;78.74
51528;BME280;37612;51.768;21.590;2023-07-20T19:02:04;99529.48;;;14.15;79.53
51528;BME280;37612;51.768;21.590;2023-07-20T19:06:06;99542.74;;;14.04;79.22
51528;BME280;37612;51.768;21.590;2023-07-20T19:10:08;99545.42;;;13.93;80.26
51528;BME280;37612;51.768;21.590;2023-07-20T19:14:11;99545.60;;;13.91;81.16
51528;BME280;37612;51.768;21.590;2023-07-20T19:18:13;99556.39;;;13.96;81.81
51528;BME280;37612;51.768;21.590;2023-07-20T19:22:15;99564.06;;;13.98;81.90
51528;BME280;37612;51.768;21.590;2023-07-20T19:26:22;99560.77;;;13.93;82.31
51528;BME280;37612;51.768;21.590;2023-07-20T19:30:44;99559.25;;;13.89;82.67
51528;BME280;37612;51.768;21.590;2023-07-20T19:34:46;99559.86;;;13.92;82.97
51528;BME280;37612;51.768;21.590;2023-07-20T19:38:47;99562.48;;;13.92;83.24
51528;BME280;37612;51.768;21.590;2023-07-20T19:42:49;99567.50;;;13.91;83.07
51528;BME280;37612;51.768;21.590;2023-07-20T19:46:51;99573.15;;;13.88;83.15
51528;BME280;37612;51.768;21.590;2023-07-20T19:50:52;99579.48;;;13.90;83.51
51528;BME280;37612;51.768;21.590;2023-07-20T19:54:56;99585.94;;;13.88;83.75
51528;BME280;37612;51.768;21.590;2023-07-20T19:58:57;99578.64;;;13.82;83.57
51528;BME280;37612;51.768;21.590;2023-07-20T20:02:59;99575.10;;;13.69;83.76
51528;BME280;37612;51.768;21.590;2023-07-20T20:07:01;99578.80;;;13.63;84.33
51528;BME280;37612;51.768;21.590;2023-07-20T20:11:08;99575.25;;;13.57;84.44
51528;BME280;37612;51.768;21.590;2023-07-20T20:15:10;99576.75;;;13.50;84.20
51528;BME280;37612;51.768;21.590;2023-07-20T20:19:12;99580.20;;;13.41;84.46
51528;BME280;37612;51.768;21.590;2023-07-20T20:23:15;99573.52;;;13.29;84.86
51528;BME280;37612;51.768;21.590;2023-07-20T20:27:19;99575.87;;;13.19;84.79
51528;BME280;37612;51.768;21.590;2023-07-20T20:31:21;99582.48;;;13.14;85.33
51528;BME280;37612;51.768;21.590;2023-07-20T20:35:22;99589.89;;;13.14;85.67
51528;BME280;37612;51.768;21.590;2023-07-20T20:39:24;99592.68;;;13.12;85.59
51528;BME280;37612;51.768;21.590;2023-07-20T20:43:26;99594.63;;;13.09;85.74
51528;BME280;37612;51.768;21.590;2023-07-20T20:47:31;99603.73;;;13.10;86.40
51528;BME280;37612;51.768;21.590;2023-07-20T20:51:36;99609.60;;;13.05;86.27
51528;BME280;37612;51.768;21.590;2023-07-20T20:55:38;99611.13;;;13.00;86.57
51528;BME280;37612;51.768;21.590;2023-07-20T20:59:39;99617.19;;;12.98;86.48
51528;BME280;37612;51.768;21.590;2023-07-20T21:03:42;99615.39;;;12.96;86.26
51528;BME280;37612;51.768;21.590;2023-07-20T21:07:44;99620.39;;;12.89;86.35
51528;BME280;37612;51.768;21.590;2023-07-20T21:11:46;99621.60;;;12.84;86.63
51528;BME280;37612;51.768;21.590;2023-07-20T21:15:51;99619.98;;;12.74;86.59
51528;BME280;37612;51.768;21.590;2023-07-20T21:19:53;99617.54;;;12.64;86.60
51528;BME280;37612;51.768;21.590;2023-07-20T21:23:55;99621.41;;;12.58;86.70
51528;BME280;37612;51.768;21.590;2023-07-20T21:27:56;99622.76;;;12.54;87.24